Time;durP1;ratioP1;P1;durP2;ratioP2;P2;SDS_P1;SDS_P2;PMS_P1;PMS_P2;Temp;Humidity;BMP_temperature;BMP_pressure;BME280_temperature;BME280_humidity;BME280_pressure;Samples;Min_cycle;Max_cycle;Signal;HPM_P1;HPM_P2
2023/04/27 00:01:18;;;;;;;11.80;6.07;;;23.10;38.70;;;;;;7641368;22;80991;-57
2023/04/27 00:04:19;;;;;;;11.98;5.97;;;23.00;38.70;;;;;;7642261;22;81030;-57
2023/04/27 00:07:20;;;;;;;11.55;6.03;;;23.10;39.00;;;;;;7642083;22;80499;-58
2023/04/27 00:10:20;;;;;;;10.65;6.47;;;23.00;38.80;;;;;;7641477;22;80323;-57
2023/04/27 00:13:21;;;;;;;13.32;6.53;;;23.00;38.40;;;;;;7641907;22;80917;-58
2023/04/27 00:16:21;;;;;;;12.82;6.57;;;23.10;38.40;;;;;;7642291;22;80233;-58
2023/04/27 00:19:22;;;;;;;11.70;5.85;;;23.00;38.60;;;;;;7642182;22;80629;-59
2023/04/27 00:22:22;;;;;;;10.57;5.57;;;23.00;38.60;;;;;;7641639;22;80891;-58
2023/04/27 00:25:23;;;;;;;15.70;6.50;;;23.10;38.70;;;;;;7641323;22;81831;-58
2023/04/27 00:28:23;;;;;;;13.52;6.72;;;23.00;38.90;;;;;;7641997;22;80283;-59
2023/04/27 00:31:24;;;;;;;15.52;6.45;;;23.00;38.40;;;;;;7614461;22;83935;-58
2023/04/27 00:34:24;;;;;;;10.95;6.40;;;23.00;39.10;;;;;;7640177;22;80964;-58
2023/04/27 00:37:25;;;;;;;13.75;6.57;;;23.00;38.90;;;;;;7614190;22;83279;-59
2023/04/27 00:40:26;;;;;;;13.07;6.75;;;23.00;38.70;;;;;;7640525;22;80176;-59
2023/04/27 00:43:26;;;;;;;15.20;7.25;;;23.00;38.80;;;;;;7612550;22;83244;-69
2023/04/27 00:46:27;;;;;;;14.05;7.43;;;23.00;39.10;;;;;;7614635;22;80570;-70
2023/04/27 00:49:28;;;;;;;11.75;7.03;;;23.00;39.00;;;;;;7615329;22;83255;-70
2023/04/27 00:52:28;;;;;;;11.60;6.28;;;23.00;39.00;;;;;;7640279;22;81486;-71
2023/04/27 00:55:29;;;;;;;13.05;6.68;;;23.00;38.90;;;;;;7641540;22;80363;-79
2023/04/27 00:58:30;;;;;;;13.27;6.32;;;23.00;39.10;;;;;;7641087;22;80913;-81
2023/04/27 01:01:32;;;;;;;10.80;6.93;;;23.00;38.80;;;;;;7615674;22;83079;-75
2023/04/27 01:04:32;;;;;;;13.73;6.97;;;23.00;38.80;;;;;;7614389;22;81193;-74
2023/04/27 01:07:33;;;;;;;15.65;7.20;;;23.00;38.70;;;;;;7642392;22;80263;-73
2023/04/27 01:10:33;;;;;;;12.40;7.10;;;23.00;38.60;;;;;;7616997;22;81635;-75
2023/04/27 01:13:34;;;;;;;12.15;6.97;;;23.00;38.50;;;;;;7616541;22;81828;-74
2023/04/27 01:16:36;;;;;;;11.88;6.78;;;23.00;38.50;;;;;;7616580;22;80808;-73
2023/04/27 01:19:37;;;;;;;18.38;8.02;;;23.00;38.50;;;;;;7616359;22;83670;-59
2023/04/27 01:22:37;;;;;;;12.52;6.90;;;23.00;38.40;;;;;;7641871;22;80534;-59
2023/04/27 01:25:38;;;;;;;14.35;7.50;;;23.00;38.50;;;;;;7615777;22;83694;-58
2023/04/27 01:28:38;;;;;;;13.43;7.18;;;23.00;38.60;;;;;;7640987;22;80683;-58
2023/04/27 01:31:39;;;;;;;13.93;7.88;;;23.00;38.60;;;;;;7614780;22;83621;-59
2023/04/27 01:34:40;;;;;;;14.05;6.63;;;23.00;38.90;;;;;;7643326;22;80760;-59
2023/04/27 01:37:40;;;;;;;13.40;7.22;;;23.00;39.40;;;;;;7616100;22;81667;-65
2023/04/27 01:40:41;;;;;;;14.00;7.07;;;23.00;39.20;;;;;;7642785;22;80961;-65
2023/04/27 01:43:42;;;;;;;14.95;8.15;;;23.00;39.20;;;;;;7616150;22;82102;-64
2023/04/27 01:46:43;;;;;;;14.02;7.75;;;23.00;38.90;;;;;;7642820;22;80436;-65
2023/04/27 01:49:43;;;;;;;13.20;7.15;;;23.00;39.00;;;;;;7617034;22;81163;-68
2023/04/27 01:52:44;;;;;;;14.90;8.10;;;23.00;38.50;;;;;;7642822;22;80394;-67
2023/04/27 01:55:44;;;;;;;16.40;8.27;;;23.00;38.50;;;;;;7643535;22;80714;-66
2023/04/27 01:58:45;;;;;;;14.05;7.63;;;22.90;38.80;;;;;;7616308;22;81453;-69
2023/04/27 02:01:45;;;;;;;15.15;7.43;;;22.90;38.70;;;;;;7616137;22;83637;-68
2023/04/27 02:04:46;;;;;;;13.45;8.10;;;22.90;38.60;;;;;;7616915;22;82980;-69
2023/04/27 02:07:47;;;;;;;14.48;7.50;;;22.90;38.40;;;;;;7643276;22;80939;-68
2023/04/27 02:10:48;;;;;;;16.48;8.65;;;22.90;38.40;;;;;;7616608;22;82601;-67
2023/04/27 02:13:50;;;;;;;14.68;8.10;;;22.90;38.50;;;;;;7616983;22;83262;-66
2023/04/27 02:16:51;;;;;;;15.13;8.27;;;22.90;38.40;;;;;;7643427;22;80908;-66
2023/04/27 02:19:51;;;;;;;21.75;8.13;;;22.90;38.20;;;;;;7611549;22;83334;-65
2023/04/27 02:22:52;;;;;;;15.23;8.23;;;22.90;38.40;;;;;;7642746;22;80806;-65
2023/04/27 02:25:53;;;;;;;14.30;7.43;;;22.90;38.70;;;;;;7643769;22;80249;-65
2023/04/27 02:28:53;;;;;;;15.18;7.57;;;22.90;38.70;;;;;;7616660;22;82732;-65
2023/04/27 02:31:54;;;;;;;17.30;8.45;;;22.90;38.90;;;;;;7616185;22;83639;-64
2023/04/27 02:34:55;;;;;;;13.00;7.55;;;23.00;39.00;;;;;;7643844;22;80613;-65
2023/04/27 02:37:56;;;;;;;15.75;7.45;;;22.90;38.90;;;;;;7615689;22;81889;-65
2023/04/27 02:40:58;;;;;;;13.02;7.32;;;22.90;38.80;;;;;;7615089;22;81670;-65
2023/04/27 02:43:58;;;;;;;14.90;7.90;;;23.00;39.00;;;;;;7642139;22;81445;-65
2023/04/27 02:46:59;;;;;;;15.55;8.20;;;22.90;38.70;;;;;;7642186;22;80568;-65
2023/04/27 02:49:59;;;;;;;16.17;8.63;;;22.90;38.80;;;;;;7642099;22;80324;-66
2023/04/27 02:53:00;;;;;;;15.20;7.72;;;22.90;38.60;;;;;;7613914;22;83272;-58
2023/04/27 02:56:01;;;;;;;15.27;7.95;;;22.90;38.50;;;;;;7640779;22;80218;-58
2023/04/27 02:59:01;;;;;;;16.88;7.95;;;22.90;38.40;;;;;;7642142;22;80312;-59
2023/04/27 03:02:02;;;;;;;17.90;8.38;;;22.90;38.40;;;;;;7640662;22;80680;-59
2023/04/27 03:05:04;;;;;;;16.13;8.65;;;22.90;38.40;;;;;;7641973;22;79969;-56
2023/04/27 03:08:04;;;;;;;15.40;8.32;;;22.90;38.20;;;;;;7641508;22;81054;-59
2023/04/27 03:11:05;;;;;;;18.55;8.15;;;22.90;38.30;;;;;;7642181;22;80186;-60
2023/04/27 03:14:05;;;;;;;14.68;7.75;;;22.90;38.30;;;;;;7615614;22;87836;-59
2023/04/27 03:17:08;;;;;;;15.30;7.85;;;22.90;38.50;;;;;;7642892;22;80903;-58
2023/04/27 03:20:09;;;;;;;13.52;7.80;;;22.90;38.30;;;;;;7642632;22;80171;-59
2023/04/27 03:23:09;;;;;;;15.30;8.55;;;23.00;37.90;;;;;;7616393;22;80473;-59
2023/04/27 03:26:10;;;;;;;15.30;8.30;;;23.00;37.80;;;;;;7641603;22;80692;-59
2023/04/27 03:29:10;;;;;;;15.80;8.05;;;23.10;37.70;;;;;;7613579;22;86441;-58
2023/04/27 03:32:11;;;;;;;17.13;8.02;;;23.10;37.50;;;;;;7641405;22;80569;-58
2023/04/27 03:35:11;;;;;;;12.90;7.75;;;23.10;37.40;;;;;;7641213;22;79916;-58
2023/04/27 03:38:12;;;;;;;15.15;7.47;;;23.10;37.40;;;;;;7641920;22;80380;-59
2023/04/27 03:41:12;;;;;;;15.20;8.45;;;23.10;37.30;;;;;;7641495;22;80743;-58
2023/04/27 03:44:13;;;;;;;15.88;8.20;;;23.20;37.20;;;;;;7642985;22;81015;-59
2023/04/27 03:47:15;;;;;;;14.23;7.25;;;23.20;37.10;;;;;;7614075;22;83309;-59
2023/04/27 03:50:16;;;;;;;13.35;7.55;;;23.20;36.80;;;;;;7615662;22;82882;-59
2023/04/27 03:53:16;;;;;;;13.05;7.32;;;23.20;36.80;;;;;;7614214;22;83146;-61
2023/04/27 03:56:17;;;;;;;17.08;8.02;;;23.20;36.70;;;;;;7643221;22;80748;-60
2023/04/27 03:59:18;;;;;;;12.45;7.65;;;23.20;36.80;;;;;;7615719;22;82132;-60
2023/04/27 04:02:23;;;;;;;14.65;8.05;;;23.20;37.00;;;;;;7615740;22;83221;-61
2023/04/27 04:05:23;;;;;;;16.42;7.40;;;23.30;37.30;;;;;;7615921;22;83067;-61
2023/04/27 04:08:24;;;;;;;13.52;7.70;;;23.30;37.40;;;;;;7615270;22;83520;-63
2023/04/27 04:11:26;;;;;;;10.75;6.63;;;23.30;37.50;;;;;;7641932;22;80548;-60
2023/04/27 04:14:30;;;;;;;14.27;7.32;;;23.40;37.40;;;;;;7614990;22;81682;-60
2023/04/27 04:17:32;;;;;;;12.40;7.32;;;23.40;37.50;;;;;;7615265;22;82924;-60
2023/04/27 04:20:33;;;;;;;14.27;7.68;;;23.40;37.60;;;;;;7615018;22;82025;-61
2023/04/27 04:23:34;;;;;;;12.63;6.35;;;23.40;37.60;;;;;;7614314;22;83197;-59
2023/04/27 04:26:36;;;;;;;15.60;6.90;;;23.50;37.80;;;;;;7615091;22;82644;-60
2023/04/27 04:29:37;;;;;;;13.48;7.57;;;23.50;37.70;;;;;;7614500;22;83443;-60
2023/04/27 04:32:39;;;;;;;12.15;6.68;;;23.50;37.80;;;;;;7613989;22;81423;-59
2023/04/27 04:35:43;;;;;;;12.43;6.38;;;23.50;37.90;;;;;;7615085;22;81418;-58
2023/04/27 04:38:44;;;;;;;12.68;6.15;;;23.60;38.00;;;;;;7613717;22;83290;-60
2023/04/27 04:41:44;;;;;;;11.48;6.63;;;23.50;38.00;;;;;;7615056;22;80052;-60
2023/04/27 04:44:46;;;;;;;13.32;7.00;;;23.60;37.70;;;;;;7616017;22;81526;-61
2023/04/27 04:47:47;;;;;;;13.70;7.28;;;23.50;37.50;;;;;;7615674;22;83254;-61
2023/04/27 04:50:48;;;;;;;15.32;7.07;;;23.50;37.60;;;;;;7617078;22;82529;-60
2023/04/27 04:53:48;;;;;;;12.43;7.03;;;23.50;37.40;;;;;;7615162;22;83483;-60
2023/04/27 04:56:49;;;;;;;12.35;7.22;;;23.50;37.20;;;;;;7638883;22;80679;-61
2023/04/27 04:59:50;;;;;;;11.57;7.15;;;23.50;37.10;;;;;;7612963;22;82322;-61
2023/04/27 05:02:51;;;;;;;14.65;6.75;;;23.50;37.10;;;;;;7639546;22;80640;-60
2023/04/27 05:05:51;;;;;;;13.43;6.93;;;23.50;37.10;;;;;;7639340;22;80883;-61
2023/04/27 05:08:52;;;;;;;12.95;6.80;;;23.50;37.00;;;;;;7639355;22;80573;-60
2023/04/27 05:11:52;;;;;;;12.63;6.68;;;23.50;37.00;;;;;;7642773;22;80812;-60
2023/04/27 05:14:53;;;;;;;12.68;6.78;;;23.50;36.90;;;;;;7641564;22;80809;-58
2023/04/27 05:17:54;;;;;;;14.52;7.78;;;23.50;36.90;;;;;;7616316;22;80385;-58
2023/04/27 05:20:55;;;;;;;19.30;7.68;;;23.50;37.00;;;;;;7641299;22;80291;-59
2023/04/27 05:23:55;;;;;;;13.48;7.25;;;23.50;37.10;;;;;;7641750;22;80255;-59
2023/04/27 05:26:56;;;;;;;14.93;6.97;;;23.50;37.10;;;;;;7640711;22;81645;-59
2023/04/27 05:29:56;;;;;;;14.88;7.10;;;23.50;37.20;;;;;;7642503;22;81194;-59
2023/04/27 05:32:57;;;;;;;13.43;7.40;;;23.50;37.20;;;;;;7641855;22;80389;-60
2023/04/27 05:35:57;;;;;;;13.18;6.90;;;23.50;37.10;;;;;;7641932;22;80914;-60
2023/04/27 05:38:57;;;;;;;15.48;6.50;;;23.50;37.20;;;;;;7642404;22;80809;-59
2023/04/27 05:41:58;;;;;;;17.70;7.85;;;23.50;37.60;;;;;;7643010;22;81106;-60
2023/04/27 05:44:58;;;;;;;10.55;6.43;;;23.50;37.30;;;;;;7641698;22;80821;-60
2023/04/27 05:47:59;;;;;;;13.02;7.22;;;23.50;37.30;;;;;;7641451;22;81434;-60
2023/04/27 05:51:00;;;;;;;14.93;7.53;;;23.50;37.50;;;;;;7642151;22;80885;-61
2023/04/27 05:54:01;;;;;;;11.65;6.35;;;23.50;37.20;;;;;;7641623;22;80446;-60
2023/04/27 05:57:01;;;;;;;13.32;6.90;;;23.50;37.40;;;;;;7642703;22;81395;-60
2023/04/27 06:00:06;;;;;;;13.40;6.97;;;23.50;37.50;;;;;;7636818;22;81464;-60
2023/04/27 06:03:12;;;;;;;12.07;6.82;;;23.50;37.20;;;;;;7637725;22;80377;-61
2023/04/27 06:06:13;;;;;;;16.80;7.30;;;23.50;37.30;;;;;;7640256;22;80458;-61
2023/04/27 06:09:13;;;;;;;12.18;7.38;;;23.40;37.10;;;;;;7640294;22;81068;-60
2023/04/27 06:12:14;;;;;;;14.15;7.90;;;23.40;36.90;;;;;;7639452;22;80793;-60
2023/04/27 06:15:14;;;;;;;18.08;7.55;;;23.50;37.50;;;;;;7639667;22;80228;-60
2023/04/27 06:18:15;;;;;;;12.52;7.50;;;23.40;36.70;;;;;;7639499;22;80579;-60
2023/04/27 06:21:15;;;;;;;18.63;7.53;;;23.40;36.70;;;;;;7614137;22;80747;-60
2023/04/27 06:24:16;;;;;;;13.25;6.90;;;23.30;36.60;;;;;;7641460;22;80585;-62
2023/04/27 06:27:16;;;;;;;13.05;6.75;;;23.30;36.50;;;;;;7642572;22;80482;-60
2023/04/27 06:30:17;;;;;;;14.90;8.10;;;23.30;36.50;;;;;;7643304;22;81201;-60
2023/04/27 06:33:17;;;;;;;14.90;7.43;;;23.40;36.50;;;;;;7642911;22;81058;-59
2023/04/27 06:36:18;;;;;;;13.60;7.30;;;23.30;36.40;;;;;;7643241;22;80809;-59
2023/04/27 06:39:18;;;;;;;13.73;7.80;;;23.40;36.40;;;;;;7641683;22;80650;-59
2023/04/27 06:42:19;;;;;;;11.35;6.35;;;23.30;36.30;;;;;;7642682;22;80874;-60
2023/04/27 06:45:21;;;;;;;10.73;6.38;;;23.40;36.40;;;;;;7614771;22;82942;-60
2023/04/27 06:48:21;;;;;;;12.68;7.10;;;23.40;36.40;;;;;;7637894;22;81183;-60
2023/04/27 06:51:22;;;;;;;12.55;6.57;;;23.40;36.40;;;;;;7634510;22;80291;-59
2023/04/27 06:54:22;;;;;;;13.60;6.53;;;23.40;36.50;;;;;;7642540;22;80324;-58
2023/04/27 06:57:23;;;;;;;14.23;6.72;;;23.30;36.80;;;;;;7642901;22;81688;-60
2023/04/27 07:00:23;;;;;;;11.45;6.25;;;23.30;36.90;;;;;;7614078;22;80543;-60
2023/04/27 07:03:24;;;;;;;13.05;6.57;;;23.30;36.90;;;;;;7641277;22;80355;-60
2023/04/27 07:06:25;;;;;;;11.57;6.70;;;23.30;36.90;;;;;;7642618;22;80276;-59
2023/04/27 07:09:27;;;;;;;13.70;6.50;;;23.30;36.80;;;;;;7642356;22;80254;-60
2023/04/27 07:12:28;;;;;;;20.63;7.20;;;23.30;36.70;;;;;;7643121;22;80330;-60
2023/04/27 07:15:28;;;;;;;11.57;6.45;;;23.30;36.60;;;;;;7642499;22;80375;-59
2023/04/27 07:18:29;;;;;;;11.45;6.93;;;23.30;36.50;;;;;;7641733;22;80557;-60
2023/04/27 07:21:30;;;;;;;11.18;6.68;;;23.30;36.40;;;;;;7642283;22;80445;-60
2023/04/27 07:24:31;;;;;;;14.63;7.25;;;23.30;36.40;;;;;;7642177;22;80334;-60
2023/04/27 07:27:31;;;;;;;15.10;7.03;;;23.30;35.90;;;;;;7642222;22;80203;-60
2023/04/27 07:30:35;;;;;;;15.05;7.57;;;23.30;35.90;;;;;;7640821;22;80360;-59
2023/04/27 07:33:36;;;;;;;12.95;6.68;;;23.30;36.00;;;;;;7641848;22;81436;-59
2023/04/27 07:36:37;;;;;;;15.60;6.97;;;23.30;35.70;;;;;;7614996;22;80453;-59
2023/04/27 07:39:37;;;;;;;14.63;7.03;;;23.20;35.60;;;;;;7615791;22;80760;-59
2023/04/27 07:42:40;;;;;;;17.52;6.20;;;23.30;35.40;;;;;;7642685;22;80699;-60
2023/04/27 07:45:41;;;;;;;13.55;5.85;;;23.30;35.10;;;;;;7640349;22;85177;-60
2023/04/27 07:48:41;;;;;;;10.70;5.50;;;23.30;35.20;;;;;;7640561;22;80409;-59
2023/04/27 07:51:42;;;;;;;9.93;5.05;;;23.30;35.00;;;;;;7634153;22;81627;-60
2023/04/27 07:54:42;;;;;;;13.65;5.35;;;23.20;34.70;;;;;;7642620;22;80337;-60
2023/04/27 07:57:43;;;;;;;12.45;5.47;;;23.30;34.90;;;;;;7644177;22;80304;-60
2023/04/27 08:00:43;;;;;;;9.63;4.88;;;23.30;35.00;;;;;;7640923;22;80997;-61
2023/04/27 08:03:44;;;;;;;10.90;5.22;;;23.20;35.00;;;;;;7644710;22;80189;-61
2023/04/27 08:06:44;;;;;;;8.73;4.20;;;23.20;35.20;;;;;;7640690;22;80724;-62
2023/04/27 08:09:45;;;;;;;9.90;4.35;;;23.20;35.30;;;;;;7644071;22;80221;-61
2023/04/27 08:12:45;;;;;;;5.70;3.75;;;23.20;35.50;;;;;;7644180;22;80754;-61
2023/04/27 08:15:46;;;;;;;8.52;4.90;;;23.20;35.60;;;;;;7644132;22;81562;-62
2023/04/27 08:18:46;;;;;;;10.35;4.65;;;23.20;35.70;;;;;;7631059;22;80532;-61
2023/04/27 08:21:47;;;;;;;7.40;3.80;;;23.20;35.80;;;;;;7637557;22;80963;-61
2023/04/27 08:24:47;;;;;;;8.88;4.57;;;23.20;35.90;;;;;;7642998;22;80642;-60
2023/04/27 08:27:48;;;;;;;7.75;3.67;;;23.20;36.00;;;;;;7643055;22;80601;-61
2023/04/27 08:30:48;;;;;;;9.55;4.20;;;23.20;36.10;;;;;;7640758;22;80635;-62
2023/04/27 08:33:49;;;;;;;9.82;4.43;;;23.20;36.10;;;;;;7608598;22;81288;-60
2023/04/27 08:36:49;;;;;;;8.60;3.72;;;23.30;36.20;;;;;;7608812;22;80475;-60
2023/04/27 08:39:50;;;;;;;6.18;3.83;;;23.30;36.10;;;;;;7638673;22;80693;-60
2023/04/27 08:42:50;;;;;;;9.63;3.92;;;23.30;36.20;;;;;;7641300;22;80564;-60
2023/04/27 08:45:52;;;;;;;9.55;3.83;;;23.40;36.30;;;;;;7637273;22;80662;-61
2023/04/27 08:48:53;;;;;;;12.50;4.07;;;23.40;36.50;;;;;;7638818;22;80655;-62
2023/04/27 08:51:53;;;;;;;12.52;4.13;;;23.40;36.40;;;;;;7641734;22;81726;-63
2023/04/27 08:54:54;;;;;;;8.70;4.32;;;23.40;36.50;;;;;;7616278;22;80392;-61
2023/04/27 08:57:55;;;;;;;6.90;3.65;;;23.40;36.40;;;;;;7642404;22;80700;-59
2023/04/27 09:00:55;;;;;;;5.47;2.97;;;23.40;36.50;;;;;;7642530;22;80400;-61
2023/04/27 09:03:56;;;;;;;8.65;3.88;;;23.40;36.40;;;;;;7643278;22;80613;-61
2023/04/27 09:06:56;;;;;;;6.03;3.45;;;23.40;36.60;;;;;;7642598;22;80385;-61
2023/04/27 09:09:57;;;;;;;8.75;3.97;;;23.40;36.50;;;;;;7642647;22;80159;-63
2023/04/27 09:12:57;;;;;;;6.28;3.40;;;23.40;36.50;;;;;;7641875;22;80710;-61
2023/04/27 09:15:58;;;;;;;8.15;3.50;;;23.40;36.60;;;;;;7642770;22;80135;-61
2023/04/27 09:18:59;;;;;;;6.50;3.00;;;23.50;36.50;;;;;;7640217;22;81105;-61
2023/04/27 09:21:59;;;;;;;5.38;3.33;;;23.50;37.20;;;;;;7641188;22;80314;-61
2023/04/27 09:25:00;;;;;;;5.68;3.55;;;23.50;36.60;;;;;;7641501;22;80375;-61
2023/04/27 09:28:00;;;;;;;8.63;3.58;;;23.60;36.50;;;;;;7642275;22;80448;-61
2023/04/27 09:31:01;;;;;;;8.52;3.63;;;23.60;36.40;;;;;;7642138;22;80315;-61
2023/04/27 09:34:01;;;;;;;5.97;3.50;;;23.60;36.30;;;;;;7642786;22;79912;-61
2023/04/27 09:37:02;;;;;;;8.95;3.30;;;23.60;36.50;;;;;;7642246;22;80807;-61
2023/04/27 09:40:03;;;;;;;6.72;3.25;;;23.60;36.40;;;;;;7614878;22;81927;-61
2023/04/27 09:43:03;;;;;;;6.95;3.20;;;23.60;36.50;;;;;;7643476;22;80388;-62
2023/04/27 09:46:05;;;;;;;3.75;2.38;;;23.60;36.40;;;;;;7644199;22;80460;-61
2023/04/27 09:49:05;;;;;;;7.38;3.72;;;23.60;36.60;;;;;;7642919;22;80357;-60
2023/04/27 09:52:06;;;;;;;4.40;2.95;;;23.60;36.60;;;;;;7643414;22;80661;-60
2023/04/27 09:55:06;;;;;;;8.45;3.13;;;23.60;36.60;;;;;;7643451;22;80972;-60
2023/04/27 09:58:07;;;;;;;5.75;2.65;;;23.60;36.60;;;;;;7642883;22;80271;-60
2023/04/27 10:01:07;;;;;;;8.10;3.45;;;23.60;36.70;;;;;;7642924;22;80905;-61
2023/04/27 10:04:08;;;;;;;4.63;2.70;;;23.60;36.70;;;;;;7643574;22;80482;-60
2023/04/27 10:07:08;;;;;;;7.80;3.08;;;23.60;36.70;;;;;;7643091;22;81174;-61
2023/04/27 10:10:10;;;;;;;10.35;3.40;;;23.60;36.80;;;;;;7642501;22;80415;-61
2023/04/27 10:13:10;;;;;;;6.85;2.60;;;23.60;36.90;;;;;;7641188;22;80418;-59
2023/04/27 10:16:11;;;;;;;7.05;3.20;;;23.60;36.90;;;;;;7615132;22;80395;-60
2023/04/27 10:19:11;;;;;;;4.22;2.55;;;23.60;36.90;;;;;;7614423;22;83007;-60
2023/04/27 10:22:12;;;;;;;4.45;2.63;;;23.60;37.00;;;;;;7642406;22;80137;-61
2023/04/27 10:25:12;;;;;;;4.72;2.63;;;23.60;37.00;;;;;;7643159;22;80245;-62
2023/04/27 10:28:13;;;;;;;5.05;2.65;;;23.60;36.70;;;;;;7641619;22;80543;-61
2023/04/27 10:31:13;;;;;;;6.88;3.58;;;23.70;36.60;;;;;;7639977;22;81349;-61
2023/04/27 10:34:14;;;;;;;7.30;3.20;;;23.70;36.60;;;;;;7642527;22;80648;-62
2023/04/27 10:37:15;;;;;;;8.90;3.58;;;23.60;36.40;;;;;;7641942;22;80232;-61
2023/04/27 10:40:16;;;;;;;6.20;3.65;;;23.70;36.60;;;;;;7641259;22;81777;-62
2023/04/27 10:43:16;;;;;;;6.70;3.17;;;23.70;36.60;;;;;;7642638;22;80385;-65
2023/04/27 10:46:17;;;;;;;4.25;3.00;;;23.70;36.50;;;;;;7643002;22;80390;-60
2023/04/27 10:49:17;;;;;;;6.90;2.75;;;23.80;36.30;;;;;;7642656;22;80261;-65
2023/04/27 10:52:18;;;;;;;18.20;3.97;;;23.80;36.00;;;;;;7641984;22;80935;-59
2023/04/27 10:55:19;;;;;;;9.35;3.53;;;23.80;36.20;;;;;;7641018;22;81075;-61
2023/04/27 10:58:20;;;;;;;9.07;3.30;;;23.80;36.30;;;;;;7642174;22;80662;-60
2023/04/27 11:01:21;;;;;;;13.90;3.40;;;23.80;36.90;;;;;;7641839;22;80563;-60
2023/04/27 11:04:21;;;;;;;5.70;2.97;;;23.90;37.10;;;;;;7642220;22;80811;-60
2023/04/27 11:07:22;;;;;;;10.27;3.85;;;23.90;39.00;;;;;;7642527;22;81096;-61
2023/04/27 11:10:22;;;;;;;14.40;4.00;;;23.90;39.60;;;;;;7636847;22;80628;-65
2023/04/27 11:13:23;;;;;;;14.13;4.30;;;24.00;41.00;;;;;;7639734;22;80674;-65
2023/04/27 11:16:23;;;;;;;10.95;4.43;;;24.00;41.10;;;;;;7571951;22;81407;-72
2023/04/27 11:19:24;;;;;;;12.45;3.95;;;23.90;41.60;;;;;;7567951;22;81934;-59
2023/04/27 11:22:24;;;;;;;17.40;4.63;;;23.90;41.40;;;;;;7602563;22;83659;-58
2023/04/27 11:25:25;;;;;;;19.10;4.95;;;23.90;41.70;;;;;;7638985;22;80915;-59
2023/04/27 11:28:25;;;;;;;21.05;5.75;;;23.90;43.00;;;;;;7640304;22;80278;-58
2023/04/27 11:31:26;;;;;;;16.73;4.85;;;23.90;43.40;;;;;;7640167;22;80729;-59
2023/04/27 11:34:26;;;;;;;13.10;4.55;;;23.80;43.10;;;;;;7612202;22;81327;-59
2023/04/27 11:37:27;;;;;;;16.23;4.75;;;23.80;44.00;;;;;;7640223;22;80587;-60
2023/04/27 11:40:28;;;;;;;14.98;4.40;;;23.80;43.60;;;;;;7639516;22;80389;-60
2023/04/27 11:43:28;;;;;;;16.20;4.82;;;23.80;43.00;;;;;;7636611;22;82237;-61
2023/04/27 11:46:29;;;;;;;13.68;4.10;;;23.80;43.00;;;;;;7638656;22;81374;-61
2023/04/27 11:49:30;;;;;;;13.13;4.32;;;23.70;42.60;;;;;;7638658;22;80446;-60
2023/04/27 11:52:30;;;;;;;14.15;4.82;;;23.70;42.40;;;;;;7612458;22;83369;-59
2023/04/27 11:55:31;;;;;;;12.18;4.65;;;23.70;42.30;;;;;;7638395;22;81133;-60
2023/04/27 11:58:31;;;;;;;11.43;4.32;;;23.70;41.80;;;;;;7609695;22;82772;-60
2023/04/27 12:01:32;;;;;;;11.38;3.80;;;23.70;41.80;;;;;;7639815;22;80240;-61
2023/04/27 12:04:32;;;;;;;14.70;4.35;;;23.70;41.50;;;;;;7637139;22;80776;-60
2023/04/27 12:07:33;;;;;;;11.63;3.65;;;23.70;41.40;;;;;;7634363;22;80904;-60
2023/04/27 12:10:33;;;;;;;8.88;3.83;;;23.70;41.20;;;;;;7634005;22;80863;-61
2023/04/27 12:13:34;;;;;;;10.50;3.88;;;23.70;41.10;;;;;;7634795;22;80466;-60
2023/04/27 12:16:34;;;;;;;9.38;3.80;;;23.70;40.90;;;;;;7633788;22;80478;-61
2023/04/27 12:19:36;;;;;;;13.40;4.35;;;23.70;40.70;;;;;;7609586;22;82109;-61
2023/04/27 12:22:37;;;;;;;8.13;4.10;;;23.80;40.60;;;;;;7636744;22;80399;-64
2023/04/27 12:25:39;;;;;;;10.38;4.05;;;23.70;40.50;;;;;;7638284;22;80743;-63
2023/04/27 12:28:40;;;;;;;10.00;3.65;;;23.70;40.20;;;;;;7599247;22;80710;-60
2023/04/27 12:31:41;;;;;;;8.75;3.80;;;23.80;40.20;;;;;;7611897;22;79944;-60
2023/04/27 12:34:42;;;;;;;7.03;3.88;;;23.80;40.10;;;;;;7614014;22;80820;-60
2023/04/27 12:37:43;;;;;;;7.75;3.42;;;23.80;40.00;;;;;;7639909;22;81475;-60
2023/04/27 12:40:43;;;;;;;9.68;3.83;;;23.80;40.00;;;;;;7639199;22;81365;-61
2023/04/27 12:43:45;;;;;;;8.68;3.83;;;23.80;40.00;;;;;;7637463;22;80557;-61
2023/04/27 12:46:46;;;;;;;7.32;3.75;;;23.80;40.20;;;;;;7641138;22;80665;-61
2023/04/27 12:49:47;;;;;;;9.27;3.22;;;23.90;40.00;;;;;;7615739;22;83818;-60
2023/04/27 12:52:49;;;;;;;7.07;3.65;;;23.90;39.80;;;;;;7642590;22;80495;-62
2023/04/27 12:55:49;;;;;;;28.85;3.75;;;23.90;39.70;;;;;;7615658;22;82700;-61
2023/04/27 12:58:50;;;;;;;10.23;3.65;;;24.00;39.60;;;;;;7638801;22;81783;-61
2023/04/27 13:01:50;;;;;;;6.40;3.17;;;24.00;39.60;;;;;;7639552;22;80206;-61
2023/04/27 13:04:51;;;;;;;8.10;3.28;;;24.00;39.60;;;;;;7641268;22;80559;-62
2023/04/27 13:07:52;;;;;;;6.68;2.72;;;23.90;39.50;;;;;;7614587;22;80471;-61
2023/04/27 13:10:52;;;;;;;7.97;3.17;;;23.90;39.30;;;;;;7636062;22;80698;-62
2023/04/27 13:13:53;;;;;;;7.90;3.35;;;24.00;39.40;;;;;;7644042;22;80361;-61
2023/04/27 13:16:54;;;;;;;5.57;3.15;;;24.00;39.40;;;;;;7643981;22;80410;-62
2023/04/27 13:19:55;;;;;;;7.80;3.35;;;24.00;39.40;;;;;;7638572;22;81473;-61
2023/04/27 13:22:55;;;;;;;10.02;3.25;;;23.90;39.30;;;;;;7642885;22;80806;-61
2023/04/27 13:25:56;;;;;;;6.63;3.17;;;23.90;39.30;;;;;;7638201;22;81558;-62
2023/04/27 13:28:57;;;;;;;6.32;3.13;;;24.00;39.50;;;;;;7637182;22;80657;-62
2023/04/27 13:31:57;;;;;;;8.43;3.40;;;23.90;40.00;;;;;;7641582;22;81192;-63
2023/04/27 13:34:58;;;;;;;7.75;3.53;;;24.00;39.40;;;;;;7640790;22;80379;-63
2023/04/27 13:37:58;;;;;;;8.05;3.00;;;24.00;39.40;;;;;;7641980;22;80757;-64
2023/04/27 13:40:59;;;;;;;9.50;2.97;;;24.00;39.60;;;;;;7642243;22;81270;-64
2023/04/27 13:44:00;;;;;;;5.70;3.35;;;24.00;39.40;;;;;;7642927;22;80678;-60
2023/04/27 13:47:00;;;;;;;6.43;2.63;;;24.00;39.40;;;;;;7637586;22;80633;-61
2023/04/27 13:50:01;;;;;;;4.43;2.63;;;24.00;39.40;;;;;;7638812;22;80395;-63
2023/04/27 13:53:01;;;;;;;7.15;2.50;;;24.00;39.50;;;;;;7640334;22;80833;-62
2023/04/27 13:56:02;;;;;;;8.93;3.03;;;24.10;39.50;;;;;;7610426;22;81164;-61
2023/04/27 13:59:02;;;;;;;8.50;3.20;;;24.00;39.50;;;;;;7639299;22;80911;-62
2023/04/27 14:02:03;;;;;;;5.00;2.95;;;24.00;39.50;;;;;;7640099;22;81127;-62
2023/04/27 14:05:04;;;;;;;7.10;2.95;;;24.00;39.70;;;;;;7632736;22;81691;-60
2023/04/27 14:08:04;;;;;;;7.20;2.70;;;24.00;39.60;;;;;;7641939;22;80128;-60
2023/04/27 14:11:05;;;;;;;6.82;3.08;;;24.00;39.80;;;;;;7640126;22;80826;-63
2023/04/27 14:14:05;;;;;;;6.70;2.78;;;24.00;39.70;;;;;;7637024;22;81963;-61
2023/04/27 14:17:06;;;;;;;5.15;3.00;;;24.00;39.60;;;;;;7639213;22;80930;-68
2023/04/27 14:20:06;;;;;;;8.25;2.88;;;24.00;39.40;;;;;;7638486;22;80518;-63
2023/04/27 14:23:07;;;;;;;7.18;2.42;;;24.00;39.20;;;;;;7639408;22;81103;-59
2023/04/27 14:26:09;;;;;;;3.92;2.63;;;24.00;39.40;;;;;;7636656;22;80612;-64
2023/04/27 14:29:10;;;;;;;4.10;2.70;;;24.00;39.90;;;;;;7638924;22;80922;-61
2023/04/27 14:32:11;;;;;;;5.90;2.75;;;24.00;40.10;;;;;;7641130;22;80279;-61
2023/04/27 14:35:11;;;;;;;6.50;2.80;;;24.00;40.40;;;;;;7636848;22;80749;-61
2023/04/27 14:38:12;;;;;;;6.97;2.78;;;24.00;40.30;;;;;;7639694;22;80580;-62
2023/04/27 14:41:12;;;;;;;5.45;2.72;;;24.00;40.50;;;;;;7640353;22;81029;-61
2023/04/27 14:44:13;;;;;;;7.65;3.15;;;24.00;40.40;;;;;;7639517;22;80941;-61
2023/04/27 14:47:13;;;;;;;4.78;2.70;;;24.00;40.30;;;;;;7639466;22;81275;-62
2023/04/27 14:50:14;;;;;;;5.80;2.72;;;24.00;40.20;;;;;;7638930;22;80509;-62
2023/04/27 14:53:15;;;;;;;10.73;3.22;;;24.00;40.30;;;;;;7631144;22;80652;-59
2023/04/27 14:56:15;;;;;;;10.95;3.28;;;23.90;40.20;;;;;;7637994;22;81026;-62
2023/04/27 14:59:16;;;;;;;8.90;3.00;;;23.90;40.30;;;;;;7641179;22;80733;-61
2023/04/27 15:02:17;;;;;;;14.18;2.90;;;23.80;40.60;;;;;;7635923;22;80707;-61
2023/04/27 15:05:18;;;;;;;11.68;2.85;;;23.80;41.40;;;;;;7637643;22;80809;-62
2023/04/27 15:08:18;;;;;;;4.03;2.78;;;23.80;41.10;;;;;;7641416;22;80702;-62
2023/04/27 15:11:19;;;;;;;9.43;3.33;;;23.80;41.20;;;;;;7610684;22;83134;-68
2023/04/27 15:14:20;;;;;;;17.25;3.00;;;23.80;41.00;;;;;;7635867;22;80641;-60
2023/04/27 15:17:20;;;;;;;6.45;2.60;;;23.90;40.70;;;;;;7633519;22;80979;-61
2023/04/27 15:20:21;;;;;;;6.10;2.83;;;23.80;40.60;;;;;;7632539;22;81953;-62
2023/04/27 15:23:21;;;;;;;5.60;2.58;;;23.80;40.40;;;;;;7638607;22;80441;-62
2023/04/27 15:26:22;;;;;;;13.40;2.65;;;23.70;40.50;;;;;;7635875;22;80984;-64
2023/04/27 15:29:22;;;;;;;9.85;2.97;;;23.70;40.40;;;;;;7636336;22;80395;-62
2023/04/27 15:32:28;;;;;;;9.73;2.65;;;23.70;40.70;;;;;;7638595;22;81502;-62